sensor_id;sensor_type;location;lat;lon;timestamp;P1;durP1;ratioP1;P2;durP2;ratioP2
11986;SDS011;6053;51.382;6.768;2023-07-16T00:00:05;0.28;;;0.28;;
11986;SDS011;6053;51.382;6.768;2023-07-16T00:02:37;2.80;;;0.70;;
11986;SDS011;6053;51.382;6.768;2023-07-16T00:05:06;1.50;;;0.50;;
11986;SDS011;6053;51.382;6.768;2023-07-16T00:07:37;0.93;;;0.40;;
11986;SDS011;6053;51.382;6.768;2023-07-16T00:10:05;1.00;;;0.70;;
11986;SDS011;6053;51.382;6.768;2023-07-16T00:12:34;1.27;;;0.60;;
11986;SDS011;6053;51.382;6.768;2023-07-16T00:15:07;1.70;;;0.90;;
11986;SDS011;6053;51.382;6.768;2023-07-16T00:17:36;0.60;;;0.50;;
11986;SDS011;6053;51.382;6.768;2023-07-16T00:20:06;0.30;;;0.28;;
11986;SDS011;6053;51.382;6.768;2023-07-16T00:22:37;1.50;;;0.80;;
11986;SDS011;6053;51.382;6.768;2023-07-16T00:25:06;0.50;;;0.50;;
11986;SDS011;6053;51.382;6.768;2023-07-16T00:27:35;0.50;;;0.30;;
11986;SDS011;6053;51.382;6.768;2023-07-16T00:30:07;1.10;;;0.63;;
11986;SDS011;6053;51.382;6.768;2023-07-16T00:32:38;0.95;;;0.57;;
11986;SDS011;6053;51.382;6.768;2023-07-16T00:35:07;0.40;;;0.40;;
11986;SDS011;6053;51.382;6.768;2023-07-16T00:37:37;1.70;;;0.93;;
11986;SDS011;6053;51.382;6.768;2023-07-16T00:40:09;0.68;;;0.60;;
11986;SDS011;6053;51.382;6.768;2023-07-16T00:42:38;1.90;;;0.80;;
11986;SDS011;6053;51.382;6.768;2023-07-16T00:45:09;1.73;;;0.60;;
11986;SDS011;6053;51.382;6.768;2023-07-16T00:47:41;0.73;;;0.50;;
11986;SDS011;6053;51.382;6.768;2023-07-16T00:50:13;1.10;;;0.70;;
11986;SDS011;6053;51.382;6.768;2023-07-16T00:52:43;2.08;;;0.80;;
11986;SDS011;6053;51.382;6.768;2023-07-16T00:55:12;0.30;;;0.30;;
11986;SDS011;6053;51.382;6.768;2023-07-16T00:57:47;1.42;;;0.55;;
11986;SDS011;6053;51.382;6.768;2023-07-16T01:00:15;0.55;;;0.40;;
11986;SDS011;6053;51.382;6.768;2023-07-16T01:02:46;2.13;;;0.77;;
11986;SDS011;6053;51.382;6.768;2023-07-16T01:05:21;0.63;;;0.50;;
11986;SDS011;6053;51.382;6.768;2023-07-16T01:08:02;0.98;;;0.75;;
11986;SDS011;6053;51.382;6.768;2023-07-16T01:10:34;1.55;;;0.40;;
11986;SDS011;6053;51.382;6.768;2023-07-16T01:13:03;0.73;;;0.50;;
11986;SDS011;6053;51.382;6.768;2023-07-16T01:15:32;1.48;;;0.40;;
11986;SDS011;6053;51.382;6.768;2023-07-16T01:18:04;0.50;;;0.50;;
11986;SDS011;6053;51.382;6.768;2023-07-16T01:20:35;2.53;;;0.65;;
11986;SDS011;6053;51.382;6.768;2023-07-16T01:23:11;3.13;;;0.60;;
11986;SDS011;6053;51.382;6.768;2023-07-16T01:26:06;1.13;;;0.37;;
11986;SDS011;6053;51.382;6.768;2023-07-16T01:31:37;2.20;;;0.73;;
11986;SDS011;6053;51.382;6.768;2023-07-16T01:34:07;0.88;;;0.47;;
11986;SDS011;6053;51.382;6.768;2023-07-16T01:36:38;2.30;;;0.38;;
11986;SDS011;6053;51.382;6.768;2023-07-16T01:39:08;1.15;;;0.40;;
11986;SDS011;6053;51.382;6.768;2023-07-16T01:41:37;0.60;;;0.37;;
11986;SDS011;6053;51.382;6.768;2023-07-16T01:44:09;1.60;;;0.60;;
11986;SDS011;6053;51.382;6.768;2023-07-16T01:46:41;1.42;;;0.80;;
11986;SDS011;6053;51.382;6.768;2023-07-16T01:49:15;0.97;;;0.30;;
11986;SDS011;6053;51.382;6.768;2023-07-16T01:51:45;1.30;;;0.40;;
11986;SDS011;6053;51.382;6.768;2023-07-16T01:54:16;0.80;;;0.40;;
11986;SDS011;6053;51.382;6.768;2023-07-16T01:56:50;1.90;;;0.60;;
11986;SDS011;6053;51.382;6.768;2023-07-16T01:59:26;1.40;;;0.87;;
11986;SDS011;6053;51.382;6.768;2023-07-16T02:01:55;2.28;;;0.60;;
11986;SDS011;6053;51.382;6.768;2023-07-16T02:04:26;0.90;;;0.45;;
11986;SDS011;6053;51.382;6.768;2023-07-16T02:06:55;2.88;;;0.98;;
11986;SDS011;6053;51.382;6.768;2023-07-16T02:09:36;1.25;;;0.47;;
11986;SDS011;6053;51.382;6.768;2023-07-16T02:12:07;2.30;;;0.60;;
11986;SDS011;6053;51.382;6.768;2023-07-16T02:14:37;0.95;;;0.40;;
11986;SDS011;6053;51.382;6.768;2023-07-16T02:17:06;1.17;;;0.52;;
11986;SDS011;6053;51.382;6.768;2023-07-16T02:19:41;1.40;;;0.85;;
11986;SDS011;6053;51.382;6.768;2023-07-16T02:22:14;3.10;;;0.90;;
11986;SDS011;6053;51.382;6.768;2023-07-16T02:24:42;2.10;;;0.60;;
11986;SDS011;6053;51.382;6.768;2023-07-16T02:27:11;0.38;;;0.35;;
11986;SDS011;6053;51.382;6.768;2023-07-16T02:29:41;1.25;;;0.40;;
11986;SDS011;6053;51.382;6.768;2023-07-16T02:32:16;0.32;;;0.30;;
11986;SDS011;6053;51.382;6.768;2023-07-16T02:34:47;1.17;;;0.65;;
11986;SDS011;6053;51.382;6.768;2023-07-16T02:37:22;0.30;;;0.30;;
11986;SDS011;6053;51.382;6.768;2023-07-16T02:39:50;0.30;;;0.30;;
11986;SDS011;6053;51.382;6.768;2023-07-16T02:42:32;0.45;;;0.40;;
11986;SDS011;6053;51.382;6.768;2023-07-16T02:45:12;3.42;;;0.82;;
11986;SDS011;6053;51.382;6.768;2023-07-16T02:47:40;0.40;;;0.38;;
11986;SDS011;6053;51.382;6.768;2023-07-16T02:50:12;0.50;;;0.50;;
11986;SDS011;6053;51.382;6.768;2023-07-16T02:52:41;0.80;;;0.47;;
11986;SDS011;6053;51.382;6.768;2023-07-16T02:55:09;1.85;;;0.70;;
11986;SDS011;6053;51.382;6.768;2023-07-16T02:57:38;0.95;;;0.40;;
11986;SDS011;6053;51.382;6.768;2023-07-16T03:00:14;1.73;;;0.80;;
11986;SDS011;6053;51.382;6.768;2023-07-16T03:02:46;1.30;;;0.50;;
11986;SDS011;6053;51.382;6.768;2023-07-16T03:05:16;1.38;;;0.60;;
11986;SDS011;6053;51.382;6.768;2023-07-16T03:07:44;3.75;;;0.85;;
11986;SDS011;6053;51.382;6.768;2023-07-16T03:10:16;2.22;;;0.90;;
11986;SDS011;6053;51.382;6.768;2023-07-16T03:12:45;0.60;;;0.30;;
11986;SDS011;6053;51.382;6.768;2023-07-16T03:15:15;1.07;;;0.30;;
11986;SDS011;6053;51.382;6.768;2023-07-16T03:17:44;4.20;;;0.90;;
11986;SDS011;6053;51.382;6.768;2023-07-16T03:20:15;2.60;;;0.93;;
11986;SDS011;6053;51.382;6.768;2023-07-16T03:22:44;1.70;;;0.70;;
11986;SDS011;6053;51.382;6.768;2023-07-16T03:25:13;2.13;;;0.80;;
11986;SDS011;6053;51.382;6.768;2023-07-16T03:27:41;1.10;;;0.50;;
11986;SDS011;6053;51.382;6.768;2023-07-16T03:30:13;0.60;;;0.43;;
11986;SDS011;6053;51.382;6.768;2023-07-16T03:32:43;1.45;;;0.70;;
11986;SDS011;6053;51.382;6.768;2023-07-16T03:35:21;1.55;;;0.70;;
11986;SDS011;6053;51.382;6.768;2023-07-16T03:38:01;1.30;;;0.73;;
11986;SDS011;6053;51.382;6.768;2023-07-16T03:40:33;2.10;;;0.70;;
11986;SDS011;6053;51.382;6.768;2023-07-16T03:43:02;1.10;;;0.60;;
11986;SDS011;6053;51.382;6.768;2023-07-16T03:45:32;1.88;;;0.70;;
11986;SDS011;6053;51.382;6.768;2023-07-16T03:48:01;2.75;;;0.60;;
11986;SDS011;6053;51.382;6.768;2023-07-16T03:50:38;2.00;;;0.55;;
11986;SDS011;6053;51.382;6.768;2023-07-16T03:53:07;2.60;;;0.80;;
11986;SDS011;6053;51.382;6.768;2023-07-16T03:55:38;2.40;;;0.57;;
11986;SDS011;6053;51.382;6.768;2023-07-16T03:58:10;2.22;;;0.88;;
11986;SDS011;6053;51.382;6.768;2023-07-16T04:00:43;2.20;;;0.80;;
11986;SDS011;6053;51.382;6.768;2023-07-16T04:03:12;3.05;;;0.85;;
11986;SDS011;6053;51.382;6.768;2023-07-16T04:05:41;1.30;;;0.50;;
11986;SDS011;6053;51.382;6.768;2023-07-16T04:08:09;2.53;;;0.80;;
11986;SDS011;6053;51.382;6.768;2023-07-16T04:10:41;2.80;;;0.65;;
11986;SDS011;6053;51.382;6.768;2023-07-16T04:13:13;1.02;;;0.60;;
11986;SDS011;6053;51.382;6.768;2023-07-16T04:15:41;1.23;;;0.70;;
11986;SDS011;6053;51.382;6.768;2023-07-16T04:18:14;1.08;;;0.60;;
11986;SDS011;6053;51.382;6.768;2023-07-16T04:20:43;2.00;;;1.00;;
11986;SDS011;6053;51.382;6.768;2023-07-16T04:23:14;3.20;;;1.10;;
11986;SDS011;6053;51.382;6.768;2023-07-16T04:25:58;2.27;;;0.80;;
11986;SDS011;6053;51.382;6.768;2023-07-16T04:28:26;1.10;;;0.90;;
11986;SDS011;6053;51.382;6.768;2023-07-16T04:30:59;1.70;;;0.80;;
11986;SDS011;6053;51.382;6.768;2023-07-16T04:33:28;2.20;;;0.60;;
11986;SDS011;6053;51.382;6.768;2023-07-16T04:35:56;2.05;;;0.80;;
11986;SDS011;6053;51.382;6.768;2023-07-16T04:38:25;4.85;;;0.85;;
11986;SDS011;6053;51.382;6.768;2023-07-16T04:40:54;1.13;;;0.60;;
11986;SDS011;6053;51.382;6.768;2023-07-16T04:43:22;0.82;;;0.63;;
11986;SDS011;6053;51.382;6.768;2023-07-16T04:45:51;4.28;;;1.15;;
11986;SDS011;6053;51.382;6.768;2023-07-16T04:48:35;4.97;;;0.93;;
11986;SDS011;6053;51.382;6.768;2023-07-16T04:51:03;1.95;;;1.08;;
11986;SDS011;6053;51.382;6.768;2023-07-16T04:53:32;2.00;;;0.90;;
11986;SDS011;6053;51.382;6.768;2023-07-16T04:56:01;2.20;;;0.98;;
11986;SDS011;6053;51.382;6.768;2023-07-16T04:58:30;1.08;;;0.60;;
11986;SDS011;6053;51.382;6.768;2023-07-16T05:01:04;2.38;;;0.90;;
11986;SDS011;6053;51.382;6.768;2023-07-16T05:03:35;3.67;;;0.90;;
11986;SDS011;6053;51.382;6.768;2023-07-16T05:06:04;2.05;;;0.77;;
11986;SDS011;6053;51.382;6.768;2023-07-16T05:08:33;2.22;;;1.00;;
11986;SDS011;6053;51.382;6.768;2023-07-16T05:11:02;2.20;;;0.90;;
11986;SDS011;6053;51.382;6.768;2023-07-16T05:13:30;2.70;;;1.10;;
11986;SDS011;6053;51.382;6.768;2023-07-16T05:16:05;5.80;;;1.20;;
11986;SDS011;6053;51.382;6.768;2023-07-16T05:18:34;0.70;;;0.50;;
11986;SDS011;6053;51.382;6.768;2023-07-16T05:21:07;3.07;;;1.07;;
11986;SDS011;6053;51.382;6.768;2023-07-16T05:23:35;2.22;;;1.02;;
11986;SDS011;6053;51.382;6.768;2023-07-16T05:26:07;1.65;;;0.70;;
11986;SDS011;6053;51.382;6.768;2023-07-16T05:28:54;2.27;;;0.80;;
11986;SDS011;6053;51.382;6.768;2023-07-16T05:31:33;3.60;;;0.98;;
11986;SDS011;6053;51.382;6.768;2023-07-16T05:34:06;1.77;;;1.20;;
11986;SDS011;6053;51.382;6.768;2023-07-16T05:36:35;2.50;;;1.00;;
11986;SDS011;6053;51.382;6.768;2023-07-16T05:39:03;2.25;;;0.70;;
11986;SDS011;6053;51.382;6.768;2023-07-16T05:41:35;1.63;;;0.90;;
11986;SDS011;6053;51.382;6.768;2023-07-16T05:44:04;5.43;;;1.40;;
11986;SDS011;6053;51.382;6.768;2023-07-16T05:46:33;2.00;;;0.90;;
11986;SDS011;6053;51.382;6.768;2023-07-16T05:49:02;3.13;;;0.90;;
11986;SDS011;6053;51.382;6.768;2023-07-16T05:51:42;1.50;;;1.05;;
11986;SDS011;6053;51.382;6.768;2023-07-16T05:54:17;2.38;;;0.70;;
11986;SDS011;6053;51.382;6.768;2023-07-16T05:56:45;2.83;;;1.30;;
11986;SDS011;6053;51.382;6.768;2023-07-16T05:59:14;4.03;;;1.20;;
11986;SDS011;6053;51.382;6.768;2023-07-16T06:01:46;2.27;;;1.13;;
11986;SDS011;6053;51.382;6.768;2023-07-16T06:04:14;1.73;;;1.10;;
11986;SDS011;6053;51.382;6.768;2023-07-16T06:06:44;0.90;;;0.65;;
11986;SDS011;6053;51.382;6.768;2023-07-16T06:09:17;3.75;;;1.13;;
11986;SDS011;6053;51.382;6.768;2023-07-16T06:11:48;4.68;;;1.23;;
11986;SDS011;6053;51.382;6.768;2023-07-16T06:14:16;3.45;;;1.30;;
11986;SDS011;6053;51.382;6.768;2023-07-16T06:16:45;3.15;;;1.20;;
11986;SDS011;6053;51.382;6.768;2023-07-16T06:19:14;5.80;;;1.45;;
11986;SDS011;6053;51.382;6.768;2023-07-16T06:21:42;1.27;;;0.93;;
11986;SDS011;6053;51.382;6.768;2023-07-16T06:24:15;3.13;;;1.20;;
11986;SDS011;6053;51.382;6.768;2023-07-16T06:26:43;6.10;;;1.80;;
11986;SDS011;6053;51.382;6.768;2023-07-16T06:29:13;2.63;;;1.25;;
11986;SDS011;6053;51.382;6.768;2023-07-16T06:31:42;2.35;;;1.10;;
11986;SDS011;6053;51.382;6.768;2023-07-16T06:34:11;1.95;;;1.10;;
11986;SDS011;6053;51.382;6.768;2023-07-16T06:36:42;2.90;;;1.35;;
11986;SDS011;6053;51.382;6.768;2023-07-16T06:39:14;2.95;;;1.52;;
11986;SDS011;6053;51.382;6.768;2023-07-16T06:41:43;2.20;;;1.27;;
11986;SDS011;6053;51.382;6.768;2023-07-16T06:44:11;2.92;;;1.33;;
11986;SDS011;6053;51.382;6.768;2023-07-16T06:46:39;3.03;;;1.42;;
11986;SDS011;6053;51.382;6.768;2023-07-16T06:49:10;2.53;;;1.50;;
11986;SDS011;6053;51.382;6.768;2023-07-16T06:51:39;2.30;;;1.50;;
11986;SDS011;6053;51.382;6.768;2023-07-16T06:54:07;2.58;;;1.45;;
11986;SDS011;6053;51.382;6.768;2023-07-16T06:56:40;2.58;;;1.70;;
11986;SDS011;6053;51.382;6.768;2023-07-16T06:59:11;3.88;;;1.42;;
11986;SDS011;6053;51.382;6.768;2023-07-16T07:01:40;4.78;;;1.50;;
11986;SDS011;6053;51.382;6.768;2023-07-16T07:04:13;3.67;;;1.60;;
11986;SDS011;6053;51.382;6.768;2023-07-16T07:06:41;2.65;;;1.60;;
11986;SDS011;6053;51.382;6.768;2023-07-16T07:09:10;2.85;;;1.42;;
11986;SDS011;6053;51.382;6.768;2023-07-16T07:11:46;2.42;;;1.40;;
11986;SDS011;6053;51.382;6.768;2023-07-16T07:14:14;1.48;;;1.08;;
11986;SDS011;6053;51.382;6.768;2023-07-16T07:16:42;4.47;;;1.55;;
11986;SDS011;6053;51.382;6.768;2023-07-16T07:19:11;1.73;;;1.40;;
11986;SDS011;6053;51.382;6.768;2023-07-16T07:21:42;3.33;;;1.70;;
11986;SDS011;6053;51.382;6.768;2023-07-16T07:24:11;3.33;;;1.50;;
11986;SDS011;6053;51.382;6.768;2023-07-16T07:26:40;2.33;;;1.47;;
11986;SDS011;6053;51.382;6.768;2023-07-16T07:29:10;4.17;;;1.57;;
11986;SDS011;6053;51.382;6.768;2023-07-16T07:31:38;2.78;;;1.65;;
11986;SDS011;6053;51.382;6.768;2023-07-16T07:34:06;1.83;;;1.58;;
11986;SDS011;6053;51.382;6.768;2023-07-16T07:36:35;2.40;;;1.40;;
11986;SDS011;6053;51.382;6.768;2023-07-16T07:39:10;2.83;;;1.48;;
11986;SDS011;6053;51.382;6.768;2023-07-16T07:41:39;1.75;;;1.40;;
11986;SDS011;6053;51.382;6.768;2023-07-16T07:44:14;3.10;;;1.47;;
11986;SDS011;6053;51.382;6.768;2023-07-16T07:46:43;3.90;;;1.67;;
11986;SDS011;6053;51.382;6.768;2023-07-16T07:49:11;3.38;;;1.65;;
11986;SDS011;6053;51.382;6.768;2023-07-16T07:51:40;3.05;;;1.63;;
11986;SDS011;6053;51.382;6.768;2023-07-16T07:54:11;2.00;;;1.50;;
11986;SDS011;6053;51.382;6.768;2023-07-16T07:56:42;2.65;;;1.48;;
11986;SDS011;6053;51.382;6.768;2023-07-16T07:59:20;2.97;;;1.42;;
11986;SDS011;6053;51.382;6.768;2023-07-16T08:01:52;4.32;;;1.60;;
11986;SDS011;6053;51.382;6.768;2023-07-16T08:04:20;2.90;;;1.52;;
11986;SDS011;6053;51.382;6.768;2023-07-16T08:06:49;3.45;;;1.42;;
11986;SDS011;6053;51.382;6.768;2023-07-16T08:09:21;2.55;;;1.42;;
11986;SDS011;6053;51.382;6.768;2023-07-16T08:11:49;1.73;;;1.13;;
11986;SDS011;6053;51.382;6.768;2023-07-16T08:14:29;2.17;;;1.58;;
11986;SDS011;6053;51.382;6.768;2023-07-16T08:16:58;4.90;;;1.48;;
11986;SDS011;6053;51.382;6.768;2023-07-16T08:19:27;1.77;;;1.60;;
11986;SDS011;6053;51.382;6.768;2023-07-16T08:22:01;1.77;;;1.50;;
11986;SDS011;6053;51.382;6.768;2023-07-16T08:24:29;1.67;;;1.40;;
11986;SDS011;6053;51.382;6.768;2023-07-16T08:26:58;2.05;;;1.60;;
11986;SDS011;6053;51.382;6.768;2023-07-16T08:29:31;2.58;;;1.60;;
11986;SDS011;6053;51.382;6.768;2023-07-16T08:32:09;2.30;;;1.40;;
11986;SDS011;6053;51.382;6.768;2023-07-16T08:34:37;1.80;;;1.15;;
11986;SDS011;6053;51.382;6.768;2023-07-16T08:37:05;1.75;;;1.50;;
11986;SDS011;6053;51.382;6.768;2023-07-16T08:39:34;2.37;;;1.43;;
11986;SDS011;6053;51.382;6.768;2023-07-16T08:42:11;1.83;;;1.20;;
11986;SDS011;6053;51.382;6.768;2023-07-16T08:44:44;2.97;;;1.58;;
11986;SDS011;6053;51.382;6.768;2023-07-16T08:47:13;2.80;;;1.60;;
11986;SDS011;6053;51.382;6.768;2023-07-16T08:49:41;3.45;;;1.70;;
11986;SDS011;6053;51.382;6.768;2023-07-16T08:52:21;2.53;;;1.48;;
11986;SDS011;6053;51.382;6.768;2023-07-16T08:54:52;3.92;;;1.50;;
11986;SDS011;6053;51.382;6.768;2023-07-16T08:57:21;3.20;;;1.58;;
11986;SDS011;6053;51.382;6.768;2023-07-16T08:59:54;2.47;;;1.33;;
11986;SDS011;6053;51.382;6.768;2023-07-16T09:02:23;2.90;;;1.20;;
11986;SDS011;6053;51.382;6.768;2023-07-16T09:04:55;1.65;;;1.33;;
11986;SDS011;6053;51.382;6.768;2023-07-16T09:07:26;2.60;;;1.27;;
11986;SDS011;6053;51.382;6.768;2023-07-16T09:10:04;1.25;;;1.15;;
11986;SDS011;6053;51.382;6.768;2023-07-16T09:12:34;2.30;;;1.52;;
11986;SDS011;6053;51.382;6.768;2023-07-16T09:15:13;1.48;;;1.13;;
11986;SDS011;6053;51.382;6.768;2023-07-16T09:20:32;7.55;;;1.60;;
11986;SDS011;6053;51.382;6.768;2023-07-16T09:23:10;2.67;;;1.52;;
11986;SDS011;6053;51.382;6.768;2023-07-16T09:25:45;2.55;;;1.17;;
11986;SDS011;6053;51.382;6.768;2023-07-16T09:28:13;2.72;;;1.48;;
11986;SDS011;6053;51.382;6.768;2023-07-16T09:30:43;2.50;;;1.27;;
11986;SDS011;6053;51.382;6.768;2023-07-16T09:33:13;1.65;;;1.25;;
11986;SDS011;6053;51.382;6.768;2023-07-16T09:35:43;1.77;;;1.38;;
11986;SDS011;6053;51.382;6.768;2023-07-16T09:38:14;3.50;;;1.50;;
11986;SDS011;6053;51.382;6.768;2023-07-16T09:40:47;2.65;;;1.35;;
11986;SDS011;6053;51.382;6.768;2023-07-16T09:43:15;2.47;;;1.30;;
11986;SDS011;6053;51.382;6.768;2023-07-16T09:45:49;2.10;;;1.50;;
11986;SDS011;6053;51.382;6.768;2023-07-16T09:48:18;2.73;;;1.50;;
11986;SDS011;6053;51.382;6.768;2023-07-16T09:50:52;1.75;;;1.10;;
11986;SDS011;6053;51.382;6.768;2023-07-16T09:53:21;2.83;;;1.70;;
11986;SDS011;6053;51.382;6.768;2023-07-16T09:55:54;2.30;;;1.15;;
11986;SDS011;6053;51.382;6.768;2023-07-16T09:58:29;2.00;;;1.20;;
11986;SDS011;6053;51.382;6.768;2023-07-16T10:01:03;2.28;;;1.30;;
11986;SDS011;6053;51.382;6.768;2023-07-16T10:03:32;0.82;;;0.80;;
11986;SDS011;6053;51.382;6.768;2023-07-16T10:06:06;2.20;;;1.52;;
11986;SDS011;6053;51.382;6.768;2023-07-16T10:08:38;2.22;;;1.10;;
11986;SDS011;6053;51.382;6.768;2023-07-16T10:11:23;2.60;;;1.30;;
11986;SDS011;6053;51.382;6.768;2023-07-16T10:13:59;3.57;;;1.27;;
11986;SDS011;6053;51.382;6.768;2023-07-16T10:16:41;2.30;;;1.20;;
11986;SDS011;6053;51.382;6.768;2023-07-16T10:19:24;1.85;;;1.20;;
11986;SDS011;6053;51.382;6.768;2023-07-16T10:21:53;1.50;;;1.23;;
11986;SDS011;6053;51.382;6.768;2023-07-16T10:24:21;1.60;;;1.20;;
11986;SDS011;6053;51.382;6.768;2023-07-16T10:27:05;2.70;;;1.48;;
11986;SDS011;6053;51.382;6.768;2023-07-16T10:29:40;2.67;;;1.20;;
11986;SDS011;6053;51.382;6.768;2023-07-16T10:32:12;2.65;;;1.20;;
11986;SDS011;6053;51.382;6.768;2023-07-16T10:34:42;2.70;;;1.30;;
11986;SDS011;6053;51.382;6.768;2023-07-16T10:37:13;1.48;;;1.20;;
11986;SDS011;6053;51.382;6.768;2023-07-16T10:39:53;3.05;;;1.23;;
11986;SDS011;6053;51.382;6.768;2023-07-16T10:42:25;1.88;;;1.20;;
11986;SDS011;6053;51.382;6.768;2023-07-16T10:44:56;1.90;;;1.40;;
11986;SDS011;6053;51.382;6.768;2023-07-16T10:47:33;2.95;;;1.30;;
11986;SDS011;6053;51.382;6.768;2023-07-16T10:50:04;3.60;;;1.60;;
11986;SDS011;6053;51.382;6.768;2023-07-16T10:52:35;2.03;;;1.00;;
11986;SDS011;6053;51.382;6.768;2023-07-16T10:55:07;3.22;;;1.20;;
11986;SDS011;6053;51.382;6.768;2023-07-16T10:57:36;2.40;;;1.40;;
11986;SDS011;6053;51.382;6.768;2023-07-16T11:00:10;2.15;;;1.40;;
11986;SDS011;6053;51.382;6.768;2023-07-16T11:02:40;1.27;;;1.10;;
11986;SDS011;6053;51.382;6.768;2023-07-16T11:05:10;1.40;;;1.20;;
11986;SDS011;6053;51.382;6.768;2023-07-16T11:07:42;1.90;;;1.17;;
11986;SDS011;6053;51.382;6.768;2023-07-16T11:10:20;2.47;;;1.10;;
11986;SDS011;6053;51.382;6.768;2023-07-16T11:12:55;1.92;;;1.23;;
11986;SDS011;6053;51.382;6.768;2023-07-16T11:15:31;1.58;;;1.23;;
11986;SDS011;6053;51.382;6.768;2023-07-16T11:18:05;3.17;;;1.30;;
11986;SDS011;6053;51.382;6.768;2023-07-16T11:20:33;1.95;;;1.40;;
11986;SDS011;6053;51.382;6.768;2023-07-16T11:23:05;2.30;;;1.60;;
11986;SDS011;6053;51.382;6.768;2023-07-16T11:25:45;3.90;;;1.48;;
11986;SDS011;6053;51.382;6.768;2023-07-16T11:28:14;1.77;;;1.10;;
11986;SDS011;6053;51.382;6.768;2023-07-16T11:30:43;2.00;;;1.33;;
11986;SDS011;6053;51.382;6.768;2023-07-16T11:33:13;3.10;;;1.40;;
11986;SDS011;6053;51.382;6.768;2023-07-16T11:35:41;1.90;;;1.35;;
11986;SDS011;6053;51.382;6.768;2023-07-16T11:38:10;1.42;;;1.02;;
11986;SDS011;6053;51.382;6.768;2023-07-16T11:40:38;2.20;;;1.17;;
11986;SDS011;6053;51.382;6.768;2023-07-16T11:43:12;1.25;;;1.08;;
11986;SDS011;6053;51.382;6.768;2023-07-16T11:45:40;1.77;;;1.20;;
11986;SDS011;6053;51.382;6.768;2023-07-16T11:48:33;1.67;;;1.17;;
11986;SDS011;6053;51.382;6.768;2023-07-16T11:51:01;1.00;;;0.90;;
11986;SDS011;6053;51.382;6.768;2023-07-16T11:53:33;1.30;;;1.10;;
11986;SDS011;6053;51.382;6.768;2023-07-16T11:56:05;1.83;;;1.00;;
11986;SDS011;6053;51.382;6.768;2023-07-16T11:58:36;3.33;;;1.30;;
11986;SDS011;6053;51.382;6.768;2023-07-16T12:01:07;1.65;;;1.13;;
11986;SDS011;6053;51.382;6.768;2023-07-16T12:03:43;1.95;;;1.00;;
11986;SDS011;6053;51.382;6.768;2023-07-16T12:06:14;2.67;;;1.30;;
11986;SDS011;6053;51.382;6.768;2023-07-16T12:08:43;3.70;;;1.30;;
11986;SDS011;6053;51.382;6.768;2023-07-16T12:11:11;1.92;;;1.23;;
11986;SDS011;6053;51.382;6.768;2023-07-16T12:13:44;1.63;;;1.10;;
11986;SDS011;6053;51.382;6.768;2023-07-16T12:16:15;2.55;;;1.30;;
11986;SDS011;6053;51.382;6.768;2023-07-16T12:18:45;1.88;;;1.20;;
11986;SDS011;6053;51.382;6.768;2023-07-16T12:21:14;1.77;;;1.20;;
11986;SDS011;6053;51.382;6.768;2023-07-16T12:23:42;1.90;;;1.23;;
11986;SDS011;6053;51.382;6.768;2023-07-16T12:26:10;1.63;;;1.20;;
11986;SDS011;6053;51.382;6.768;2023-07-16T12:28:45;2.65;;;1.33;;
11986;SDS011;6053;51.382;6.768;2023-07-16T12:31:16;2.05;;;1.20;;
11986;SDS011;6053;51.382;6.768;2023-07-16T12:33:51;1.92;;;1.30;;
11986;SDS011;6053;51.382;6.768;2023-07-16T12:36:19;2.20;;;1.20;;
11986;SDS011;6053;51.382;6.768;2023-07-16T12:38:54;3.80;;;1.43;;
11986;SDS011;6053;51.382;6.768;2023-07-16T12:41:22;3.87;;;1.30;;
11986;SDS011;6053;51.382;6.768;2023-07-16T12:43:53;2.13;;;1.20;;
11986;SDS011;6053;51.382;6.768;2023-07-16T12:46:25;2.35;;;1.20;;
11986;SDS011;6053;51.382;6.768;2023-07-16T12:49:03;1.63;;;1.20;;
11986;SDS011;6053;51.382;6.768;2023-07-16T12:51:37;2.50;;;1.40;;
11986;SDS011;6053;51.382;6.768;2023-07-16T12:54:08;2.70;;;1.20;;
11986;SDS011;6053;51.382;6.768;2023-07-16T12:56:37;2.03;;;1.45;;
11986;SDS011;6053;51.382;6.768;2023-07-16T12:59:05;2.97;;;1.20;;
11986;SDS011;6053;51.382;6.768;2023-07-16T13:01:33;2.00;;;1.30;;
11986;SDS011;6053;51.382;6.768;2023-07-16T13:04:03;1.87;;;1.27;;
11986;SDS011;6053;51.382;6.768;2023-07-16T13:06:38;2.40;;;1.40;;
11986;SDS011;6053;51.382;6.768;2023-07-16T13:09:15;1.47;;;1.10;;
11986;SDS011;6053;51.382;6.768;2023-07-16T13:11:44;3.10;;;1.40;;
11986;SDS011;6053;51.382;6.768;2023-07-16T13:14:12;2.83;;;1.30;;
11986;SDS011;6053;51.382;6.768;2023-07-16T13:16:40;3.50;;;1.30;;
11986;SDS011;6053;51.382;6.768;2023-07-16T13:19:10;3.55;;;1.40;;
11986;SDS011;6053;51.382;6.768;2023-07-16T13:21:41;1.90;;;1.35;;
11986;SDS011;6053;51.382;6.768;2023-07-16T13:24:10;2.95;;;1.33;;
11986;SDS011;6053;51.382;6.768;2023-07-16T13:26:38;1.42;;;1.20;;
11986;SDS011;6053;51.382;6.768;2023-07-16T13:29:13;2.28;;;1.20;;
11986;SDS011;6053;51.382;6.768;2023-07-16T13:31:42;2.55;;;1.17;;
11986;SDS011;6053;51.382;6.768;2023-07-16T13:34:12;3.27;;;1.30;;
11986;SDS011;6053;51.382;6.768;2023-07-16T13:36:40;1.88;;;1.20;;
11986;SDS011;6053;51.382;6.768;2023-07-16T13:39:11;1.58;;;1.20;;
11986;SDS011;6053;51.382;6.768;2023-07-16T13:41:40;1.30;;;1.20;;
11986;SDS011;6053;51.382;6.768;2023-07-16T13:44:14;2.80;;;1.25;;
11986;SDS011;6053;51.382;6.768;2023-07-16T13:46:45;1.80;;;1.10;;
11986;SDS011;6053;51.382;6.768;2023-07-16T13:49:18;1.50;;;1.27;;
11986;SDS011;6053;51.382;6.768;2023-07-16T13:51:52;1.50;;;1.20;;
11986;SDS011;6053;51.382;6.768;2023-07-16T13:54:21;1.53;;;1.00;;
11986;SDS011;6053;51.382;6.768;2023-07-16T13:56:49;1.23;;;1.00;;
11986;SDS011;6053;51.382;6.768;2023-07-16T13:59:17;1.50;;;1.08;;
11986;SDS011;6053;51.382;6.768;2023-07-16T14:01:58;1.60;;;1.05;;
11986;SDS011;6053;51.382;6.768;2023-07-16T14:04:35;1.45;;;0.80;;
11986;SDS011;6053;51.382;6.768;2023-07-16T14:07:04;1.80;;;1.07;;
11986;SDS011;6053;51.382;6.768;2023-07-16T14:09:35;3.03;;;1.00;;
11986;SDS011;6053;51.382;6.768;2023-07-16T14:12:04;1.33;;;0.85;;
11986;SDS011;6053;51.382;6.768;2023-07-16T14:14:32;1.42;;;0.98;;
11986;SDS011;6053;51.382;6.768;2023-07-16T14:17:07;1.65;;;1.00;;
11986;SDS011;6053;51.382;6.768;2023-07-16T14:19:42;1.60;;;1.00;;
11986;SDS011;6053;51.382;6.768;2023-07-16T14:22:20;0.90;;;0.90;;
11986;SDS011;6053;51.382;6.768;2023-07-16T14:24:52;1.47;;;0.90;;
11986;SDS011;6053;51.382;6.768;2023-07-16T14:27:24;1.27;;;1.08;;
11986;SDS011;6053;51.382;6.768;2023-07-16T14:29:58;2.93;;;1.03;;
11986;SDS011;6053;51.382;6.768;2023-07-16T14:32:34;1.95;;;0.98;;
11986;SDS011;6053;51.382;6.768;2023-07-16T14:35:04;1.23;;;1.10;;
11986;SDS011;6053;51.382;6.768;2023-07-16T14:37:51;1.23;;;1.00;;
11986;SDS011;6053;51.382;6.768;2023-07-16T14:40:27;1.67;;;1.03;;
11986;SDS011;6053;51.382;6.768;2023-07-16T14:43:04;0.85;;;0.77;;
11986;SDS011;6053;51.382;6.768;2023-07-16T14:45:41;2.50;;;0.87;;
11986;SDS011;6053;51.382;6.768;2023-07-16T14:48:09;2.10;;;1.00;;
11986;SDS011;6053;51.382;6.768;2023-07-16T14:50:42;5.07;;;1.00;;
11986;SDS011;6053;51.382;6.768;2023-07-16T14:53:13;2.50;;;1.17;;
11986;SDS011;6053;51.382;6.768;2023-07-16T14:55:45;2.20;;;1.17;;
11986;SDS011;6053;51.382;6.768;2023-07-16T14:58:14;0.85;;;0.80;;
11986;SDS011;6053;51.382;6.768;2023-07-16T15:00:45;1.92;;;1.10;;
11986;SDS011;6053;51.382;6.768;2023-07-16T15:03:16;1.00;;;0.90;;
11986;SDS011;6053;51.382;6.768;2023-07-16T15:05:56;1.98;;;1.08;;
11986;SDS011;6053;51.382;6.768;2023-07-16T15:08:24;2.17;;;1.10;;
11986;SDS011;6053;51.382;6.768;2023-07-16T15:10:53;2.40;;;1.00;;
11986;SDS011;6053;51.382;6.768;2023-07-16T15:13:25;1.42;;;1.10;;
11986;SDS011;6053;51.382;6.768;2023-07-16T15:15:55;2.40;;;1.00;;
11986;SDS011;6053;51.382;6.768;2023-07-16T15:18:24;1.98;;;1.15;;
11986;SDS011;6053;51.382;6.768;2023-07-16T15:21:01;1.65;;;1.27;;
11986;SDS011;6053;51.382;6.768;2023-07-16T15:23:30;2.27;;;1.07;;
11986;SDS011;6053;51.382;6.768;2023-07-16T15:26:07;1.38;;;1.00;;
11986;SDS011;6053;51.382;6.768;2023-07-16T15:28:38;1.30;;;1.20;;
11986;SDS011;6053;51.382;6.768;2023-07-16T15:31:09;2.17;;;1.08;;